Time;durP1;ratioP1;P1;durP2;ratioP2;P2;SDS_P1;SDS_P2;PMS_P1;PMS_P2;Temp;Humidity;BMP_temperature;BMP_pressure;BME280_temperature;BME280_humidity;BME280_pressure;Samples;Min_cycle;Max_cycle;Signal;HPM_P1;HPM_P2
2021/11/01 00:01:04;;;;;;;10.90;3.03;;;13.10;91.80;;;;;;5073361;28;20448;-71
2021/11/01 00:03:31;;;;;;;6.47;2.53;;;13.10;91.80;;;;;;5073406;28;20441;-71
2021/11/01 00:05:58;;;;;;;13.67;2.80;;;13.20;91.70;;;;;;5073311;28;20480;-71
2021/11/01 00:08:26;;;;;;;8.23;2.37;;;13.10;91.50;;;;;;5073294;28;20464;-71
2021/11/01 00:10:53;;;;;;;10.32;3.15;;;13.10;91.50;;;;;;5073088;28;20813;-71
2021/11/01 00:13:20;;;;;;;15.50;3.00;;;13.20;91.30;;;;;;5075690;28;20209;-71
2021/11/01 00:15:46;;;;;;;9.43;3.33;;;13.20;91.30;;;;;;5077283;28;20425;-71
2021/11/01 00:18:13;;;;;;;7.57;2.03;;;13.20;91.20;;;;;;5077403;28;20469;-71
2021/11/01 00:20:40;;;;;;;9.03;2.63;;;13.10;91.10;;;;;;5077403;28;20449;-71
2021/11/01 00:23:07;;;;;;;5.27;2.20;;;13.10;90.90;;;;;;5077265;28;20440;-71
2021/11/01 00:25:35;;;;;;;9.70;3.20;;;13.00;91.00;;;;;;5076878;28;20496;-71
2021/11/01 00:28:03;;;;;;;7.50;2.60;;;13.00;91.00;;;;;;5076830;28;21000;-71
2021/11/01 00:30:30;;;;;;;10.43;2.40;;;13.00;91.00;;;;;;5076857;28;21004;-71
2021/11/01 00:32:56;;;;;;;7.57;2.93;;;13.00;91.10;;;;;;5077053;28;20448;-71
2021/11/01 00:35:23;;;;;;;8.77;3.03;;;13.00;91.20;;;;;;5076754;28;20941;-71
2021/11/01 00:37:50;;;;;;;10.80;2.90;;;13.00;91.20;;;;;;5076947;28;20471;-71
2021/11/01 00:40:17;;;;;;;8.60;3.27;;;12.90;91.20;;;;;;5076919;28;20440;-71
2021/11/01 00:42:45;;;;;;;8.00;2.83;;;13.00;91.30;;;;;;5076917;28;20452;-71
2021/11/01 00:45:12;;;;;;;12.37;4.60;;;13.00;91.30;;;;;;5076796;28;20476;-71
2021/11/01 00:47:39;;;;;;;11.23;3.40;;;13.00;91.40;;;;;;5076900;28;20460;-71
2021/11/01 00:50:06;;;;;;;10.73;3.60;;;13.00;91.20;;;;;;5076699;28;20432;-71
2021/11/01 00:52:33;;;;;;;8.17;3.33;;;13.00;91.10;;;;;;5076666;28;20521;-71
2021/11/01 00:55:02;;;;;;;5.80;2.77;;;12.90;90.90;;;;;;5076568;28;20440;-71
2021/11/01 00:57:29;;;;;;;6.83;3.10;;;12.90;91.20;;;;;;5076607;28;20469;-71
2021/11/01 00:59:58;;;;;;;7.80;3.00;;;12.90;91.40;;;;;;5076447;28;20444;-71
2021/11/01 01:02:25;;;;;;;9.97;4.03;;;12.80;91.00;;;;;;5076190;28;20956;-71
2021/11/01 01:04:52;;;;;;;9.40;3.33;;;12.80;91.00;;;;;;5075932;28;21016;-71
2021/11/01 01:07:19;;;;;;;9.80;3.10;;;12.80;91.20;;;;;;5076297;28;20471;-70
2021/11/01 01:09:47;;;;;;;10.77;3.37;;;12.70;91.30;;;;;;5075993;28;20448;-71
2021/11/01 01:12:14;;;;;;;5.50;2.90;;;12.70;91.40;;;;;;5076352;28;20449;-71
2021/11/01 01:14:45;;;;;;;11.03;2.97;;;12.70;91.20;;;;;;5075895;28;20952;-71
2021/11/01 01:17:13;;;;;;;7.80;2.70;;;12.70;91.10;;;;;;5076052;28;20460;-70
2021/11/01 01:19:49;;;;;;;9.50;3.20;;;12.60;91.40;;;;;;5076125;28;20441;-71
2021/11/01 01:22:24;;;;;;;10.10;3.43;;;12.60;91.50;;;;;;5076231;28;20432;-71
2021/11/01 01:24:50;;;;;;;26.83;3.50;;;12.60;91.60;;;;;;5075925;28;20532;-71
2021/11/01 01:27:17;;;;;;;7.90;2.73;;;12.50;91.40;;;;;;5075908;28;20475;-71
2021/11/01 01:29:44;;;;;;;4.87;3.00;;;12.50;91.40;;;;;;5075978;28;20452;-71
2021/11/01 01:32:12;;;;;;;9.80;3.60;;;12.50;91.40;;;;;;5075985;28;20447;-71
2021/11/01 01:34:39;;;;;;;10.47;2.43;;;12.50;91.40;;;;;;5075940;28;20445;-71
2021/11/01 01:37:06;;;;;;;12.67;3.13;;;12.60;91.20;;;;;;5075825;28;20545;-71
2021/11/01 01:39:33;;;;;;;8.40;2.73;;;12.50;90.90;;;;;;5075825;28;20445;-71
2021/11/01 01:41:59;;;;;;;15.30;3.67;;;12.50;91.10;;;;;;5075906;28;20445;-71
2021/11/01 01:44:26;;;;;;;5.83;2.23;;;12.50;91.00;;;;;;5075676;28;20444;-71
2021/11/01 01:46:53;;;;;;;7.03;2.60;;;12.50;90.90;;;;;;5075638;28;20452;-71
2021/11/01 01:49:21;;;;;;;9.57;2.93;;;12.50;91.00;;;;;;5075684;28;20452;-71
2021/11/01 01:51:49;;;;;;;9.73;2.93;;;12.50;91.10;;;;;;5076184;28;20460;-71
2021/11/01 01:54:16;;;;;;;12.73;3.60;;;12.40;91.00;;;;;;5075584;28;20433;-71
2021/11/01 01:56:43;;;;;;;7.30;2.00;;;12.40;91.00;;;;;;5076106;28;20436;-71
2021/11/01 01:59:17;;;;;;;3.20;1.77;;;12.50;90.80;;;;;;5075836;28;20468;-71
2021/11/01 02:01:44;;;;;;;4.30;1.90;;;12.40;90.70;;;;;;5075542;28;20898;-71
2021/11/01 02:04:11;;;;;;;6.93;2.40;;;12.40;90.80;;;;;;5075432;28;20448;-71
2021/11/01 02:07:11;;;;;;;4.93;1.90;;;12.50;90.70;;;;;;5075002;28;20841;-71
2021/11/01 02:09:57;;;;;;;8.73;1.97;;;12.40;90.70;;;;;;5075116;28;20437;-71
2021/11/01 02:12:30;;;;;;;9.17;2.57;;;12.40;90.60;;;;;;5075259;28;20436;-71
2021/11/01 02:15:02;;;;;;;5.73;2.13;;;12.30;90.60;;;;;;5074936;28;20425;-71
2021/11/01 02:17:31;;;;;;;6.10;2.60;;;12.40;90.80;;;;;;5075160;28;20464;-71
2021/11/01 02:20:02;;;;;;;5.00;2.03;;;12.30;90.70;;;;;;5075201;28;20449;-71
2021/11/01 02:22:39;;;;;;;7.57;3.10;;;12.30;90.70;;;;;;5075941;28;20767;-71
2021/11/01 02:25:09;;;;;;;8.07;2.23;;;12.40;91.00;;;;;;5074614;28;20864;-71
2021/11/01 02:27:40;;;;;;;5.53;2.30;;;12.30;90.90;;;;;;5074914;28;20468;-71
2021/11/01 02:30:10;;;;;;;6.00;3.13;;;12.30;91.10;;;;;;5074910;28;20433;-71
2021/11/01 02:32:40;;;;;;;13.10;2.83;;;12.30;90.70;;;;;;5074814;28;20822;-71
2021/11/01 02:35:08;;;;;;;10.27;2.80;;;12.20;90.80;;;;;;5073981;28;20785;-71
2021/11/01 02:37:37;;;;;;;3.83;1.50;;;12.20;90.70;;;;;;5074696;28;20469;-71
2021/11/01 02:40:05;;;;;;;6.00;2.13;;;12.20;90.80;;;;;;5074751;28;20441;-71
2021/11/01 02:42:32;;;;;;;8.23;2.63;;;12.20;90.80;;;;;;5074632;28;20445;-71
2021/11/01 02:45:02;;;;;;;10.17;2.50;;;12.20;90.90;;;;;;5074549;28;20448;-71
2021/11/01 02:47:30;;;;;;;5.77;1.90;;;12.20;90.80;;;;;;5074576;28;20820;-71
2021/11/01 02:49:58;;;;;;;9.47;3.70;;;12.20;90.60;;;;;;5074516;28;20453;-71
2021/11/01 02:52:25;;;;;;;9.70;2.53;;;12.20;90.60;;;;;;5074509;28;20444;-71
2021/11/01 02:54:53;;;;;;;7.90;2.53;;;12.20;90.60;;;;;;5074417;28;20459;-71
2021/11/01 02:57:20;;;;;;;6.40;2.30;;;12.10;90.80;;;;;;5074315;28;20500;-71
2021/11/01 02:59:48;;;;;;;9.20;2.40;;;12.20;91.30;;;;;;5074408;28;20869;-71
2021/11/01 03:02:17;;;;;;;5.00;2.07;;;12.20;90.80;;;;;;5074261;28;20455;-71
2021/11/01 03:04:43;;;;;;;13.07;3.77;;;12.20;90.60;;;;;;5074253;28;20451;-71
2021/11/01 03:07:11;;;;;;;9.77;2.83;;;12.10;90.60;;;;;;5073214;28;20449;-70
2021/11/01 03:09:40;;;;;;;6.43;3.00;;;12.20;90.90;;;;;;5073841;28;20853;-70
2021/11/01 03:12:10;;;;;;;8.67;2.57;;;12.20;91.00;;;;;;5074038;28;20445;-70
2021/11/01 03:14:46;;;;;;;9.03;2.67;;;12.30;90.60;;;;;;5073744;28;20934;-70
2021/11/01 03:17:18;;;;;;;8.00;2.33;;;12.30;90.80;;;;;;5056029;28;20832;-70
2021/11/01 03:19:49;;;;;;;13.30;4.03;;;12.30;91.00;;;;;;5074008;28;20459;-70
2021/11/01 03:22:17;;;;;;;8.07;2.60;;;12.30;90.70;;;;;;5073854;28;20432;-70
2021/11/01 03:24:51;;;;;;;6.37;2.40;;;12.20;90.60;;;;;;5073691;28;20572;-71
2021/11/01 03:27:19;;;;;;;7.60;2.47;;;12.30;90.80;;;;;;5073221;28;20570;-71
2021/11/01 03:29:47;;;;;;;9.50;2.50;;;12.30;90.70;;;;;;5074067;28;20441;-71
2021/11/01 03:32:15;;;;;;;4.43;1.80;;;12.30;90.80;;;;;;5073681;28;20456;-71
2021/11/01 03:34:45;;;;;;;7.00;3.13;;;12.20;90.60;;;;;;5073744;28;20957;-71
2021/11/01 03:37:15;;;;;;;6.23;2.30;;;12.20;90.80;;;;;;5073753;28;20506;-71
2021/11/01 03:39:44;;;;;;;7.43;2.00;;;12.20;91.00;;;;;;5073407;28;20809;-71
2021/11/01 03:42:11;;;;;;;6.80;2.40;;;12.10;90.90;;;;;;5073608;28;20453;-71
2021/11/01 03:44:44;;;;;;;7.63;2.87;;;12.20;91.20;;;;;;5073629;28;20463;-71
2021/11/01 03:47:13;;;;;;;7.77;2.20;;;12.20;90.90;;;;;;5073357;28;20558;-70
2021/11/01 03:49:49;;;;;;;8.20;2.43;;;12.20;90.80;;;;;;5073562;28;20488;-70
2021/11/01 03:52:22;;;;;;;9.10;2.30;;;12.20;90.70;;;;;;5073297;28;20476;-70
2021/11/01 03:54:49;;;;;;;8.90;2.50;;;12.10;90.80;;;;;;5073559;28;20439;-70
2021/11/01 03:57:16;;;;;;;7.20;2.63;;;12.10;91.00;;;;;;5073689;28;20467;-70
2021/11/01 03:59:43;;;;;;;6.27;2.40;;;12.10;90.90;;;;;;5073432;28;20519;-71
2021/11/01 04:02:13;;;;;;;9.77;2.30;;;12.10;90.90;;;;;;5073063;28;20938;-71
2021/11/01 04:04:40;;;;;;;17.33;3.33;;;12.10;90.90;;;;;;5073607;28;20445;-71
2021/11/01 04:07:06;;;;;;;8.00;3.27;;;12.10;90.80;;;;;;5073187;28;20499;-71
2021/11/01 04:09:34;;;;;;;6.47;2.50;;;12.10;90.90;;;;;;5073837;28;20551;-71
2021/11/01 04:12:01;;;;;;;11.30;3.50;;;12.10;91.00;;;;;;5073362;28;20444;-71
2021/11/01 04:14:36;;;;;;;8.53;2.10;;;12.10;91.00;;;;;;5073955;28;20824;-71
2021/11/01 04:17:09;;;;;;;7.30;2.00;;;12.00;90.80;;;;;;5073910;28;20527;-70
2021/11/01 04:19:45;;;;;;;5.83;2.47;;;12.00;91.00;;;;;;5073437;28;20455;-71
2021/11/01 04:22:12;;;;;;;8.10;2.27;;;12.00;90.80;;;;;;5073258;28;20428;-71
2021/11/01 04:24:40;;;;;;;9.80;4.20;;;12.00;90.60;;;;;;5073087;28;20540;-71
2021/11/01 04:27:07;;;;;;;7.50;1.90;;;12.00;90.60;;;;;;5073063;28;20603;-71
2021/11/01 04:29:34;;;;;;;10.07;3.80;;;12.00;90.40;;;;;;5073158;28;20453;-71
2021/11/01 04:32:24;;;;;;;5.30;2.10;;;12.00;90.30;;;;;;5073333;28;20449;-71
2021/11/01 04:34:57;;;;;;;9.53;2.40;;;12.00;90.40;;;;;;5073156;28;20429;-71
2021/11/01 04:37:24;;;;;;;15.33;2.83;;;12.00;90.50;;;;;;5073159;28;20500;-71
2021/11/01 04:40:04;;;;;;;6.50;2.93;;;12.00;90.40;;;;;;5073070;28;20820;-71
2021/11/01 04:42:51;;;;;;;6.30;1.93;;;12.00;90.20;;;;;;5073163;28;20433;-71
2021/11/01 04:53:27;;;;;;;7.57;2.33;;;12.00;90.10;;;;;;5073129;28;20396;-71
2021/11/01 04:55:56;;;;;;;8.07;2.37;;;12.00;89.90;;;;;;5073169;28;20447;-71
2021/11/01 04:58:24;;;;;;;10.40;1.80;;;12.00;89.40;;;;;;5073379;28;20837;-71
2021/11/01 05:00:52;;;;;;;6.93;2.10;;;11.90;89.80;;;;;;5076641;28;20444;-71
2021/11/01 05:03:30;;;;;;;12.63;2.60;;;11.90;88.80;;;;;;5076551;28;20448;-71
2021/11/01 05:05:57;;;;;;;12.13;2.00;;;11.90;89.10;;;;;;5077340;28;20471;-71
2021/11/01 05:08:28;;;;;;;5.17;1.70;;;11.90;89.10;;;;;;5076391;28;20836;-71
2021/11/01 05:11:01;;;;;;;16.03;2.50;;;11.90;88.30;;;;;;5076435;28;20487;-71
2021/11/01 05:13:28;;;;;;;8.73;2.10;;;11.90;88.70;;;;;;5076400;28;20429;-71
2021/11/01 05:15:59;;;;;;;13.17;2.97;;;12.00;88.50;;;;;;5076102;28;20468;-71
2021/11/01 05:18:29;;;;;;;9.87;2.37;;;11.90;88.90;;;;;;5076251;28;20573;-71
2021/11/01 05:21:04;;;;;;;9.90;2.37;;;11.90;89.10;;;;;;5076221;28;20536;-71
2021/11/01 05:23:34;;;;;;;9.73;2.50;;;11.90;89.00;;;;;;5076400;28;20436;-71
2021/11/01 05:26:05;;;;;;;9.57;2.93;;;11.80;89.30;;;;;;5076325;28;20477;-71
2021/11/01 05:28:42;;;;;;;9.60;1.80;;;11.80;89.60;;;;;;5076054;28;20465;-70
2021/11/01 05:31:15;;;;;;;8.00;2.20;;;11.80;89.10;;;;;;5076100;28;20436;-70
2021/11/01 05:33:51;;;;;;;7.93;2.37;;;11.80;88.80;;;;;;5075832;28;20895;-70
2021/11/01 05:36:18;;;;;;;12.10;2.67;;;11.80;88.40;;;;;;5076081;28;20431;-71
2021/11/01 05:38:45;;;;;;;5.87;1.87;;;11.80;88.40;;;;;;5076125;28;20500;-71
2021/11/01 05:41:13;;;;;;;5.40;2.07;;;11.80;88.60;;;;;;5075626;28;20452;-71
2021/11/01 05:43:40;;;;;;;6.10;2.20;;;11.80;88.90;;;;;;5075545;28;20935;-71
2021/11/01 05:46:07;;;;;;;7.97;2.20;;;11.80;88.60;;;;;;5075729;28;20484;-71
2021/11/01 05:48:35;;;;;;;11.20;1.80;;;11.80;89.00;;;;;;5075775;28;20475;-71
2021/11/01 05:51:02;;;;;;;9.20;2.13;;;11.80;88.90;;;;;;5076165;28;20476;-71
2021/11/01 05:53:34;;;;;;;9.57;2.03;;;11.80;88.30;;;;;;5075459;28;20437;-71
2021/11/01 05:56:13;;;;;;;7.00;2.00;;;11.80;88.20;;;;;;5075972;28;20429;-71
2021/11/01 05:58:49;;;;;;;8.37;2.13;;;11.80;88.00;;;;;;5075610;28;20464;-71
2021/11/01 06:01:35;;;;;;;4.43;2.17;;;11.80;87.80;;;;;;5075563;28;20433;-71
2021/11/01 06:04:07;;;;;;;12.23;2.50;;;11.70;87.60;;;;;;5075545;28;20461;-71
2021/11/01 06:06:53;;;;;;;12.37;3.90;;;11.80;87.80;;;;;;5075469;28;20472;-71
2021/11/01 06:09:32;;;;;;;7.97;2.50;;;11.70;87.50;;;;;;5075345;28;20445;-71
2021/11/01 06:14:44;;;;;;;11.97;2.83;;;11.70;87.80;;;;;;5075401;28;20400;-71
2021/11/01 06:17:11;;;;;;;9.93;2.47;;;11.70;87.60;;;;;;5075157;28;20483;-71
2021/11/01 06:19:38;;;;;;;8.63;2.70;;;11.70;87.50;;;;;;5076316;28;20433;-71
2021/11/01 06:22:05;;;;;;;11.20;3.97;;;11.70;87.20;;;;;;5075150;28;20484;-71
2021/11/01 06:24:47;;;;;;;11.83;3.33;;;11.60;87.60;;;;;;5075112;28;20475;-70
2021/11/01 06:27:15;;;;;;;3.87;1.90;;;11.60;87.50;;;;;;5074904;28;20488;-70
2021/11/01 06:29:57;;;;;;;8.63;2.47;;;11.60;87.20;;;;;;5074743;28;20437;-70
2021/11/01 06:32:31;;;;;;;8.60;2.67;;;11.60;86.90;;;;;;5074963;28;20491;-71
2021/11/01 06:40:40;;;;;;;10.33;2.07;;;11.70;87.00;;;;;;5075117;28;20446;-71
2021/11/01 06:43:10;;;;;;;8.07;1.90;;;11.60;86.50;;;;;;5074721;28;20428;-71
2021/11/01 06:46:16;;;;;;;7.27;2.47;;;11.60;86.60;;;;;;5074705;28;20487;-71
2021/11/01 06:57:14;;;;;;;10.27;3.43;;;11.50;86.80;;;;;;4993146;28;20447;-70
2021/11/01 07:16:27;;;;;;;13.17;3.83;;;11.60;87.00;;;;;;5074491;28;20405;-71
2021/11/01 07:19:00;;;;;;;9.70;2.93;;;11.50;86.80;;;;;;5074058;28;20469;-71
2021/11/01 07:30:13;;;;;;;8.03;3.00;;;11.70;86.80;;;;;;5074184;28;20401;-71
2021/11/01 08:22:40;;;;;;;6.63;1.80;;;12.40;87.00;;;;;;5131282;28;20394;-72
2021/11/01 08:25:38;;;;;;;4.53;1.80;;;12.50;86.90;;;;;;5131172;28;20479;-72
2021/11/01 08:28:18;;;;;;;8.57;2.17;;;12.50;86.50;;;;;;5130788;28;20530;-72
2021/11/01 08:39:27;;;;;;;8.67;1.87;;;12.70;85.60;;;;;;5130269;28;20810;-69
2021/11/01 08:42:24;;;;;;;5.90;1.63;;;12.70;85.60;;;;;;5130854;28;20437;-69
2021/11/01 08:50:36;;;;;;;4.90;1.30;;;12.80;85.00;;;;;;5098236;28;20524;-69
2021/11/01 09:07:40;;;;;;;7.30;2.00;;;13.30;83.90;;;;;;5116354;28;20423;-67
2021/11/01 09:13:20;;;;;;;7.23;2.03;;;13.30;81.70;;;;;;5116489;28;20529;-68
2021/11/01 09:18:54;;;;;;;5.20;1.60;;;13.30;81.90;;;;;;5116498;28;20441;-68
2021/11/01 09:21:53;;;;;;;4.97;1.30;;;13.40;81.60;;;;;;5115247;28;20525;-68
2021/11/01 09:24:49;;;;;;;7.97;1.30;;;13.40;81.00;;;;;;5115486;28;20900;-70
2021/11/01 09:27:20;;;;;;;5.37;1.83;;;13.50;81.20;;;;;;5115220;28;20459;-68
2021/11/01 09:30:15;;;;;;;8.70;1.30;;;13.60;81.60;;;;;;5116035;28;20492;-69
2021/11/01 09:35:55;;;;;;;4.60;1.40;;;13.70;80.30;;;;;;5116126;28;20406;-68
2021/11/01 09:41:15;;;;;;;6.50;1.87;;;13.90;79.00;;;;;;5115849;28;21039;-68
2021/11/01 09:43:48;;;;;;;9.67;1.10;;;14.00;78.30;;;;;;5115531;28;20439;-68
2021/11/01 09:46:21;;;;;;;2.07;0.93;;;14.00;77.30;;;;;;5115532;28;20455;-68
2021/11/01 09:51:41;;;;;;;3.17;0.90;;;14.20;77.60;;;;;;5115374;28;20452;-68
2021/11/01 09:54:19;;;;;;;3.30;0.90;;;14.20;76.20;;;;;;5115472;28;20892;-68
2021/11/01 09:56:56;;;;;;;4.00;1.00;;;14.20;76.10;;;;;;5115690;28;20426;-68
2021/11/01 09:59:23;;;;;;;6.90;1.40;;;14.10;76.00;;;;;;5115564;28;20427;-68
2021/11/01 10:01:52;;;;;;;4.13;1.00;;;14.20;76.50;;;;;;5115587;28;20508;-68
2021/11/01 10:04:21;;;;;;;2.77;0.93;;;14.30;76.00;;;;;;5114625;28;20450;-68
2021/11/01 10:07:00;;;;;;;7.30;1.57;;;14.40;76.70;;;;;;5115659;28;20450;-68
2021/11/01 10:09:31;;;;;;;4.77;1.33;;;14.40;74.60;;;;;;5115263;28;20892;-68
2021/11/01 10:11:58;;;;;;;7.53;1.73;;;14.40;73.50;;;;;;5115495;28;20445;-68
2021/11/01 10:14:26;;;;;;;5.23;1.20;;;14.60;73.60;;;;;;5115417;28;20491;-68
2021/11/01 10:19:41;;;;;;;2.03;0.90;;;14.70;72.30;;;;;;5115388;28;20951;-68
2021/11/01 10:22:10;;;;;;;4.10;1.50;;;14.80;71.30;;;;;;5115262;28;20869;-69
2021/11/01 10:24:40;;;;;;;2.10;0.70;;;14.90;70.30;;;;;;5114836;28;20804;-69
2021/11/01 10:27:08;;;;;;;3.93;1.00;;;15.00;70.00;;;;;;5114720;28;20919;-68
2021/11/01 10:30:02;;;;;;;3.30;1.13;;;15.20;67.80;;;;;;5114822;28;20426;-68
2021/11/01 10:32:38;;;;;;;5.73;1.50;;;15.50;68.90;;;;;;5114383;28;20443;-69
2021/11/01 10:35:32;;;;;;;7.00;1.43;;;15.60;68.10;;;;;;5115009;28;20419;-69
2021/11/01 10:38:18;;;;;;;2.40;0.90;;;15.70;67.80;;;;;;5114605;28;20462;-69
2021/11/01 10:41:01;;;;;;;1.27;0.73;;;15.70;65.70;;;;;;5114293;28;21011;-69
2021/11/01 10:43:46;;;;;;;3.90;1.10;;;15.70;65.50;;;;;;5114230;28;20495;-68
2021/11/01 11:14:40;;;;;;;2.63;0.77;;;19.00;51.50;;;;;;5107681;28;20931;-70
2021/11/01 11:20:20;;;;;;;3.27;0.90;;;19.50;51.10;;;;;;5112969;28;20470;-70
2021/11/01 11:29:02;;;;;;;1.77;0.70;;;20.40;48.80;;;;;;5114241;28;20483;-70
2021/11/01 11:32:05;;;;;;;5.10;1.37;;;20.20;49.70;;;;;;5114045;28;20443;-70
2021/11/01 11:43:14;;;;;;;3.30;0.70;;;18.90;49.30;;;;;;5113784;28;20454;-70
2021/11/01 11:48:35;;;;;;;1.57;0.83;;;19.10;49.40;;;;;;5114353;28;20445;-69
2021/11/01 11:51:07;;;;;;;2.10;0.60;;;19.30;49.40;;;;;;5113871;28;20419;-69
2021/11/01 11:53:33;;;;;;;5.37;1.50;;;19.30;49.30;;;;;;5113893;28;20480;-69
2021/11/01 11:56:06;;;;;;;2.10;0.93;;;19.40;48.60;;;;;;5113868;28;20813;-69
2021/11/01 11:58:35;;;;;;;3.07;1.00;;;19.60;47.60;;;;;;5113769;28;20469;-69
2021/11/01 12:01:02;;;;;;;7.10;1.33;;;19.60;47.60;;;;;;5113709;28;20494;-69
2021/11/01 12:03:39;;;;;;;8.30;1.93;;;19.40;47.90;;;;;;5113729;28;20428;-69
2021/11/01 12:06:12;;;;;;;5.77;2.73;;;19.20;48.60;;;;;;5113503;28;20427;-69
2021/11/01 12:08:41;;;;;;;3.17;1.00;;;18.90;49.20;;;;;;5113675;28;20489;-69
2021/11/01 12:11:29;;;;;;;3.97;1.87;;;18.90;48.70;;;;;;5113713;28;20431;-69
2021/11/01 12:17:09;;;;;;;6.83;1.33;;;18.60;49.30;;;;;;5113677;28;20465;-67
2021/11/01 12:19:38;;;;;;;4.27;0.90;;;18.40;49.00;;;;;;5113164;28;20489;-68
2021/11/01 12:22:11;;;;;;;4.53;1.67;;;18.80;49.30;;;;;;5113433;28;20438;-69
2021/11/01 12:24:39;;;;;;;2.67;1.00;;;19.20;48.20;;;;;;5113025;28;20480;-69
2021/11/01 12:27:08;;;;;;;3.90;1.60;;;19.70;48.00;;;;;;5115577;28;20454;-68
2021/11/01 12:29:37;;;;;;;4.73;1.40;;;19.80;45.90;;;;;;5117233;28;20465;-68
2021/11/01 12:32:08;;;;;;;6.13;2.20;;;19.70;47.30;;;;;;5116977;28;20971;-68
2021/11/01 12:34:41;;;;;;;3.40;1.37;;;19.40;46.70;;;;;;5117289;28;20431;-68
2021/11/01 12:37:16;;;;;;;4.53;1.13;;;19.20;47.50;;;;;;5117177;28;20442;-68
2021/11/01 12:39:46;;;;;;;2.17;0.90;;;18.80;48.60;;;;;;5116690;28;20457;-68
2021/11/01 12:42:29;;;;;;;3.57;1.23;;;18.80;48.20;;;;;;5117430;28;20474;-68
2021/11/01 12:48:10;;;;;;;3.47;1.50;;;18.20;50.30;;;;;;5116977;28;20442;-68
2021/11/01 12:58:57;;;;;;;3.13;1.83;;;17.10;53.30;;;;;;5116622;28;20454;-68
2021/11/01 13:01:25;;;;;;;4.37;1.30;;;16.90;53.50;;;;;;5116449;28;20880;-68
2021/11/01 13:04:26;;;;;;;6.67;1.67;;;17.10;52.40;;;;;;5116679;28;20443;-68
2021/11/01 13:07:23;;;;;;;4.80;1.53;;;17.40;52.10;;;;;;5116067;28;20447;-68
2021/11/01 13:10:15;;;;;;;4.67;1.40;;;17.60;51.90;;;;;;5111666;28;20451;-69
2021/11/01 13:12:59;;;;;;;6.63;1.40;;;18.10;50.80;;;;;;5116568;28;20534;-68
2021/11/01 13:18:23;;;;;;;3.80;1.00;;;19.70;47.90;;;;;;5116397;28;20439;-68
2021/11/01 13:20:54;;;;;;;2.30;0.97;;;20.40;44.70;;;;;;5116374;28;20471;-69
2021/11/01 13:23:24;;;;;;;2.70;0.90;;;20.80;43.70;;;;;;5116461;28;20484;-68
2021/11/01 13:37:14;;;;;;;2.97;0.90;;;22.30;40.30;;;;;;5116036;28;20426;-72
2021/11/01 13:39:43;;;;;;;1.47;0.87;;;22.60;40.30;;;;;;5115715;28;20928;-72
2021/11/01 13:42:11;;;;;;;4.67;1.00;;;22.80;40.40;;;;;;5115965;28;20486;-72
2021/11/01 13:44:38;;;;;;;5.50;0.80;;;22.80;40.00;;;;;;5115902;28;20445;-72
2021/11/01 13:47:07;;;;;;;3.80;1.03;;;22.70;39.90;;;;;;5115780;28;20454;-72
2021/11/01 13:49:35;;;;;;;2.83;1.00;;;22.60;40.10;;;;;;5116004;28;20451;-71
2021/11/01 13:52:17;;;;;;;3.00;0.77;;;22.60;40.50;;;;;;5115504;28;20446;-71
2021/11/01 13:55:00;;;;;;;7.53;1.37;;;22.70;40.20;;;;;;5115522;28;20896;-72
2021/11/01 13:57:30;;;;;;;1.63;0.80;;;22.40;40.60;;;;;;5115688;28;20467;-69
2021/11/01 14:00:10;;;;;;;2.40;1.07;;;22.30;41.20;;;;;;5115595;28;20451;-69
2021/11/01 14:03:04;;;;;;;2.87;1.10;;;22.40;40.90;;;;;;5115655;28;20454;-69
2021/11/01 14:11:19;;;;;;;4.73;1.33;;;22.10;40.90;;;;;;5115259;28;20441;-69
2021/11/01 14:13:56;;;;;;;3.80;0.90;;;21.70;41.60;;;;;;5115401;28;20441;-69
2021/11/01 14:16:29;;;;;;;3.07;1.40;;;21.30;42.10;;;;;;5115380;28;20453;-69
2021/11/01 14:19:12;;;;;;;4.83;1.27;;;20.60;42.40;;;;;;5115240;28;20479;-69
2021/11/01 14:27:44;;;;;;;4.07;1.53;;;18.90;46.70;;;;;;5115103;28;20476;-69
2021/11/01 14:33:23;;;;;;;3.23;0.77;;;18.30;49.20;;;;;;5116454;28;20425;-69
2021/11/01 14:55:46;;;;;;;3.07;0.67;;;17.00;52.00;;;;;;5114688;28;20398;-72
2021/11/01 15:14:42;;;;;;;4.47;1.20;;;16.20;54.50;;;;;;5114386;28;20430;-70
2021/11/01 15:17:23;;;;;;;3.53;0.83;;;16.20;55.00;;;;;;5114257;28;20480;-70
2021/11/01 15:20:03;;;;;;;3.90;0.87;;;16.10;55.30;;;;;;5114261;28;20427;-70
2021/11/01 15:22:49;;;;;;;3.53;1.20;;;16.10;55.80;;;;;;5114106;28;20466;-70
2021/11/01 15:25:42;;;;;;;5.87;1.20;;;16.10;55.60;;;;;;5113391;28;20924;-69
2021/11/01 15:36:33;;;;;;;6.33;1.20;;;15.90;56.10;;;;;;5114133;28;20422;-72
2021/11/01 15:39:15;;;;;;;6.00;2.13;;;15.80;56.60;;;;;;5113740;28;20621;-73
2021/11/01 15:42:20;;;;;;;9.40;3.73;;;15.90;56.80;;;;;;5114037;28;20640;-73
2021/11/01 16:18:07;;;;;;;5.20;2.43;;;15.10;58.80;;;;;;5117271;28;20492;-69
2021/11/01 16:20:34;;;;;;;4.27;2.47;;;15.10;59.30;;;;;;5117528;28;20435;-70
2021/11/01 16:23:19;;;;;;;7.97;2.70;;;15.00;59.00;;;;;;5117261;28;20935;-70
2021/11/01 16:25:54;;;;;;;10.23;9.23;;;15.00;59.20;;;;;;5117478;28;20434;-70
2021/11/01 16:28:20;;;;;;;9.60;6.10;;;14.90;59.50;;;;;;5117339;28;20466;-70
2021/11/01 16:30:56;;;;;;;6.87;4.53;;;14.90;59.50;;;;;;5117404;28;20431;-70
2021/11/01 16:33:28;;;;;;;5.80;3.03;;;14.80;59.80;;;;;;5117407;28;20430;-70
2021/11/01 16:35:58;;;;;;;8.53;2.67;;;14.80;59.90;;;;;;5117409;28;20459;-70
2021/11/01 16:38:29;;;;;;;6.00;2.63;;;14.70;59.70;;;;;;5117123;28;20494;-70
2021/11/01 16:40:56;;;;;;;5.23;2.03;;;14.70;60.40;;;;;;5116982;28;20486;-69
2021/11/01 16:43:25;;;;;;;2.43;1.47;;;14.70;60.60;;;;;;5117129;28;20451;-70
2021/11/01 16:45:54;;;;;;;6.13;1.67;;;14.70;60.70;;;;;;5117703;28;20463;-70
2021/11/01 16:48:23;;;;;;;2.23;1.50;;;14.60;60.40;;;;;;5116999;28;20467;-70
2021/11/01 16:50:52;;;;;;;4.27;2.43;;;14.60;59.90;;;;;;5116994;28;20423;-70
2021/11/01 16:53:21;;;;;;;7.00;3.00;;;14.50;60.70;;;;;;5116888;28;20453;-70
2021/11/01 16:55:51;;;;;;;7.07;2.13;;;14.50;61.40;;;;;;5116878;28;20847;-70
2021/11/01 16:58:23;;;;;;;4.07;1.77;;;14.50;61.50;;;;;;5116803;28;20470;-70
2021/11/01 17:00:57;;;;;;;6.27;2.00;;;14.50;62.00;;;;;;5116481;28;20427;-70
2021/11/01 17:03:34;;;;;;;4.47;2.17;;;14.40;61.90;;;;;;5116805;28;20522;-70
2021/11/01 17:06:11;;;;;;;5.37;2.13;;;14.40;62.60;;;;;;5116718;28;20477;-70
2021/11/01 17:09:06;;;;;;;7.50;2.90;;;14.40;62.60;;;;;;5116615;28;20553;-70
2021/11/01 17:22:44;;;;;;;6.03;2.03;;;14.10;62.70;;;;;;5116447;28;20449;-70
2021/11/01 17:25:15;;;;;;;7.80;1.97;;;14.10;63.20;;;;;;5117214;28;20847;-70
2021/11/01 17:30:51;;;;;;;4.50;1.57;;;14.00;62.80;;;;;;5105080;28;20472;-70
2021/11/01 17:36:17;;;;;;;7.10;2.30;;;13.90;63.10;;;;;;5116269;28;20891;-73
2021/11/01 18:23:51;;;;;;;4.10;2.33;;;13.90;63.40;;;;;;5116001;28;20469;-71
2021/11/01 18:40:17;;;;;;;8.30;2.50;;;13.30;67.10;;;;;;5114580;28;20466;-73
2021/11/01 18:45:55;;;;;;;5.10;2.10;;;13.20;68.30;;;;;;5114773;28;20426;-72
2021/11/01 18:51:19;;;;;;;5.00;2.00;;;13.10;69.10;;;;;;5114764;28;20480;-72
2021/11/01 18:53:57;;;;;;;6.30;1.90;;;13.00;70.10;;;;;;5114706;28;20433;-73
2021/11/01 18:56:30;;;;;;;3.10;2.27;;;12.90;69.70;;;;;;5114532;28;20427;-72
2021/11/01 18:59:00;;;;;;;5.90;2.40;;;12.90;70.20;;;;;;5114058;28;20995;-72
2021/11/01 19:01:28;;;;;;;3.07;2.10;;;12.90;70.40;;;;;;5114416;28;20479;-72
2021/11/01 19:03:57;;;;;;;5.27;2.10;;;12.90;70.40;;;;;;5114416;28;20446;-72
2021/11/01 19:06:36;;;;;;;3.50;2.00;;;12.80;70.80;;;;;;5114358;28;20545;-72
2021/11/01 19:09:19;;;;;;;5.40;2.80;;;12.80;71.00;;;;;;5114399;28;20925;-73
2021/11/01 20:04:47;;;;;;;6.30;2.33;;;12.40;74.00;;;;;;5113907;28;20933;-71
2021/11/01 20:08:13;;;;;;;6.53;2.87;;;12.40;74.20;;;;;;5113273;28;20870;-70
2021/11/01 20:13:14;;;;;;;6.40;2.63;;;12.40;74.20;;;;;;5113750;28;20410;-72
2021/11/01 21:25:21;;;;;;;3.30;2.00;;;12.10;78.20;;;;;;5116480;28;20456;-70
2021/11/01 21:27:48;;;;;;;5.43;2.63;;;12.10;78.20;;;;;;5116262;28;20473;-69
2021/11/01 21:30:16;;;;;;;8.30;2.70;;;12.10;78.40;;;;;;5116013;28;20927;-70
2021/11/01 21:32:43;;;;;;;5.10;2.00;;;12.10;78.50;;;;;;5115984;28;20955;-70
2021/11/01 21:35:13;;;;;;;8.80;2.43;;;12.00;78.60;;;;;;5115931;28;20912;-70
2021/11/01 21:37:41;;;;;;;8.80;2.37;;;12.10;79.00;;;;;;5116053;28;20502;-69
2021/11/01 21:40:10;;;;;;;7.53;2.40;;;12.10;79.10;;;;;;5116010;28;20466;-69
2021/11/01 21:42:38;;;;;;;6.37;2.30;;;12.10;79.30;;;;;;5115955;28;20478;-70
2021/11/01 21:45:06;;;;;;;4.43;2.30;;;12.00;79.00;;;;;;5116019;28;20450;-70
2021/11/01 21:47:35;;;;;;;10.23;3.27;;;12.00;79.00;;;;;;5115887;28;20466;-69
2021/11/01 21:50:02;;;;;;;7.37;2.87;;;12.00;79.10;;;;;;5115580;28;20546;-70
2021/11/01 21:52:30;;;;;;;7.67;2.77;;;12.00;79.30;;;;;;5116443;28;20424;-70
2021/11/01 21:54:58;;;;;;;9.10;2.40;;;12.00;79.40;;;;;;5116888;28;20447;-70
2021/11/01 21:57:30;;;;;;;7.67;2.80;;;11.90;79.60;;;;;;5115660;28;20491;-69